Time;durP1;ratioP1;P1;durP2;ratioP2;P2;SDS_P1;SDS_P2;PMS_P1;PMS_P2;Temp;Humidity;BMP_temperature;BMP_pressure;BME280_temperature;BME280_humidity;BME280_pressure;Samples;Min_cycle;Max_cycle;Signal;HPM_P1;HPM_P2
2024/01/04 00:00:38;;;;;;;;;;;;;;;8.44;100.00;98719.53;6254238;28;19971;-80
2024/01/04 00:03:39;;;;;;;;;;;;;;;8.35;100.00;98727.13;6252820;28;19921;-81
2024/01/04 00:06:41;;;;;;;;;;;;;;;8.49;100.00;98733.97;6253666;28;19921;-80
2024/01/04 00:09:42;;;;;;;;;;;;;;;8.35;100.00;98727.13;6253017;28;19968;-80
2024/01/04 00:12:47;;;;;;;;;;;;;;;8.38;100.00;98725.16;6274318;28;19921;-80
2024/01/04 00:15:48;;;;;;;;;;;;;;;8.29;100.00;98712.81;6270098;28;20285;-81
2024/01/04 00:18:49;;;;;;;;;;;;;;;8.25;100.00;98703.56;6251169;28;19925;-81
2024/01/04 00:21:49;;;;;;;;;;;;;;;8.24;100.00;98704.53;6271024;28;19920;-82
2024/01/04 00:24:50;;;;;;;;;;;;;;;8.42;100.00;98711.00;6275182;28;19928;-80
2024/01/04 00:27:51;;;;;;;;;;;;;;;8.28;100.00;98708.56;6269672;28;20032;-82
2024/01/04 00:30:52;;;;;;;;;;;;;;;8.35;100.00;98706.34;6255675;28;20385;-81
2024/01/04 00:33:53;;;;;;;;;;;;;;;8.36;100.00;98687.19;6268795;28;19962;-80
2024/01/04 00:36:54;;;;;;;;;;;;;;;8.31;100.00;98692.72;6273322;28;19928;-81
2024/01/04 00:39:54;;;;;;;;;;;;;;;8.36;100.00;98689.78;6250738;28;19936;-80
2024/01/04 00:42:57;;;;;;;;;;;;;;;8.17;100.00;98682.50;6252273;28;19920;-81
2024/01/04 00:45:58;;;;;;;;;;;;;;;8.22;100.00;98676.06;6250697;28;19971;-80
2024/01/04 00:48:59;;;;;;;;;;;;;;;8.22;100.00;98672.63;6251641;28;19933;-80
2024/01/04 00:52:00;;;;;;;;;;;;;;;8.18;100.00;98676.41;6269243;28;20304;-80
2024/01/04 00:55:01;;;;;;;;;;;;;;;8.17;100.00;98666.94;6251738;28;19948;-80
2024/01/04 00:58:05;;;;;;;;;;;;;;;8.19;100.00;98668.47;6249481;28;19924;-80
2024/01/04 01:01:06;;;;;;;;;;;;;;;8.20;100.00;98666.72;6268114;28;20007;-81
2024/01/04 01:04:07;;;;;;;;;;;;;;;8.22;100.00;98657.88;6251944;28;19924;-79
2024/01/04 01:07:07;;;;;;;;;;;;;;;8.21;100.00;98643.19;6251081;28;20446;-80
2024/01/04 01:10:08;;;;;;;;;;;;;;;8.18;100.00;98645.22;6251362;28;20373;-80
2024/01/04 01:13:09;;;;;;;;;;;;;;;8.13;100.00;98647.31;6250053;28;20431;-80
2024/01/04 01:16:10;;;;;;;;;;;;;;;8.10;100.00;98644.94;6255049;28;19931;-79
2024/01/04 01:19:11;;;;;;;;;;;;;;;8.14;100.00;98633.38;6271032;28;19925;-80
2024/01/04 01:22:12;;;;;;;;;;;;;;;8.15;100.00;98638.44;6263392;28;19921;-80
2024/01/04 01:25:12;;;;;;;;;;;;;;;8.27;100.00;98662.72;6254949;28;19921;-82
2024/01/04 01:28:15;;;;;;;;;;;;;;;8.22;100.00;98644.88;6261822;28;20403;-82
2024/01/04 01:31:16;;;;;;;;;;;;;;;8.26;100.00;98651.50;6268343;28;19921;-81
2024/01/04 01:34:17;;;;;;;;;;;;;;;8.28;100.00;98654.81;6273718;28;19927;-81
2024/01/04 01:37:18;;;;;;;;;;;;;;;8.20;100.00;98662.34;6258536;28;19971;-81
2024/01/04 01:40:19;;;;;;;;;;;;;;;8.29;100.00;98655.63;6267989;28;20364;-81
2024/01/04 01:43:20;;;;;;;;;;;;;;;8.09;100.00;98646.69;6268505;28;19944;-81
2024/01/04 01:46:20;;;;;;;;;;;;;;;8.23;100.00;98650.88;6249491;28;19964;-80
2024/01/04 01:49:21;;;;;;;;;;;;;;;8.14;100.00;98646.38;6267268;28;19928;-81
2024/01/04 01:52:22;;;;;;;;;;;;;;;8.08;100.00;98642.47;6249133;28;20327;-80
2024/01/04 01:55:24;;;;;;;;;;;;;;;8.21;100.00;98642.38;6251570;28;19952;-81
2024/01/04 01:58:25;;;;;;;;;;;;;;;8.25;100.00;98662.00;6268900;28;19920;-80
2024/01/04 02:01:26;;;;;;;;;;;;;;;8.21;100.00;98663.16;6249968;28;20317;-80
2024/01/04 02:04:26;;;;;;;;;;;;;;;8.26;100.00;98659.28;6267779;28;19924;-82
2024/01/04 02:07:27;;;;;;;;;;;;;;;8.26;100.00;98656.69;6262803;28;19935;-80
2024/01/04 02:10:28;;;;;;;;;;;;;;;8.17;100.00;98639.16;6275373;28;19921;-80
2024/01/04 02:13:29;;;;;;;;;;;;;;;8.24;100.00;98626.56;6266602;28;19994;-81
2024/01/04 02:16:30;;;;;;;;;;;;;;;8.26;100.00;98620.31;6252032;28;19931;-81
2024/01/04 02:19:31;;;;;;;;;;;;;;;8.19;100.00;98619.09;6252468;28;19921;-81
2024/01/04 02:22:34;;;;;;;;;;;;;;;8.26;100.00;98625.50;6254297;28;19921;-81
2024/01/04 02:25:34;;;;;;;;;;;;;;;8.30;100.00;98612.28;6278771;28;19924;-80
2024/01/04 02:28:35;;;;;;;;;;;;;;;8.31;100.00;98613.94;6255534;28;19928;-81
2024/01/04 02:31:35;;;;;;;;;;;;;;;8.23;100.00;98604.13;6249632;28;20003;-79
2024/01/04 02:34:36;;;;;;;;;;;;;;;8.26;100.00;98606.50;6254524;28;19967;-80
2024/01/04 02:37:37;;;;;;;;;;;;;;;8.34;100.00;98611.09;6276391;28;19920;-80
2024/01/04 02:40:38;;;;;;;;;;;;;;;8.37;100.00;98608.28;6260126;28;19994;-80
2024/01/04 02:43:39;;;;;;;;;;;;;;;8.36;100.00;98596.22;6269060;28;19924;-80
2024/01/04 02:46:40;;;;;;;;;;;;;;;8.42;100.00;98590.59;6276211;28;20031;-80
2024/01/04 02:49:41;;;;;;;;;;;;;;;8.30;100.00;98591.47;6298202;28;20384;-81
2024/01/04 02:52:43;;;;;;;;;;;;;;;8.32;100.00;98587.84;6255546;28;19959;-81
2024/01/04 02:55:44;;;;;;;;;;;;;;;8.30;100.00;98573.28;6272351;28;20380;-81
2024/01/04 02:58:45;;;;;;;;;;;;;;;8.25;100.00;98566.66;6272646;28;19936;-80
2024/01/04 03:01:48;;;;;;;;;;;;;;;8.28;100.00;98558.66;6254889;28;19920;-81
2024/01/04 03:04:49;;;;;;;;;;;;;;;8.27;100.00;98563.97;6269676;28;19927;-81
2024/01/04 03:07:50;;;;;;;;;;;;;;;8.18;100.00;98559.47;6271926;28;19921;-80
2024/01/04 03:10:50;;;;;;;;;;;;;;;8.11;100.00;98555.66;6272816;28;19943;-81
2024/01/04 03:13:51;;;;;;;;;;;;;;;8.08;100.00;98559.31;6273313;28;20270;-80
2024/01/04 03:16:52;;;;;;;;;;;;;;;8.07;100.00;98558.50;6272352;28;20038;-81
2024/01/04 03:19:53;;;;;;;;;;;;;;;8.25;100.00;98553.69;6254371;28;20373;-81
2024/01/04 03:22:53;;;;;;;;;;;;;;;8.21;100.00;98557.44;6266435;28;20150;-81
2024/01/04 03:25:54;;;;;;;;;;;;;;;8.24;100.00;98559.00;6253908;28;19924;-81
2024/01/04 03:28:58;;;;;;;;;;;;;;;8.26;100.00;98562.31;6282568;28;19921;-82
2024/01/04 03:31:58;;;;;;;;;;;;;;;8.24;100.00;98565.03;6270671;28;20401;-81
2024/01/04 03:34:59;;;;;;;;;;;;;;;8.22;100.00;98560.91;6258052;28;20407;-81
2024/01/04 03:38:01;;;;;;;;;;;;;;;8.19;100.00;98567.13;6291509;28;20296;-79
2024/01/04 03:41:02;;;;;;;;;;;;;;;8.28;100.00;98571.66;6271424;28;19927;-81
2024/01/04 03:44:03;;;;;;;;;;;;;;;8.10;100.00;98572.22;6285802;28;20007;-80
2024/01/04 03:47:04;;;;;;;;;;;;;;;8.28;100.00;98565.63;6261556;28;20380;-81
2024/01/04 03:50:06;;;;;;;;;;;;;;;8.30;100.00;98566.34;6253716;28;19921;-81
2024/01/04 03:53:06;;;;;;;;;;;;;;;8.21;100.00;98559.22;6253500;28;20400;-81
2024/01/04 03:56:07;;;;;;;;;;;;;;;8.22;100.00;98553.09;6252606;28;19920;-81
2024/01/04 03:59:08;;;;;;;;;;;;;;;8.18;100.00;98546.47;6253495;28;19920;-80
2024/01/04 04:02:08;;;;;;;;;;;;;;;8.10;100.00;98554.84;6253086;28;19921;-81
2024/01/04 04:05:09;;;;;;;;;;;;;;;7.99;100.00;98554.78;6257668;28;20057;-81
2024/01/04 04:08:10;;;;;;;;;;;;;;;8.06;100.00;98562.03;6278117;28;19920;-81
2024/01/04 04:11:15;;;;;;;;;;;;;;;8.14;100.00;98560.66;6253597;28;19921;-81
2024/01/04 04:14:18;;;;;;;;;;;;;;;8.12;100.00;98562.53;6285681;28;19920;-82
2024/01/04 04:17:20;;;;;;;;;;;;;;;8.08;100.00;98557.53;6270443;28;20280;-81
2024/01/04 04:20:21;;;;;;;;;;;;;;;8.06;100.00;98556.00;6273178;28;19970;-81
2024/01/04 04:23:21;;;;;;;;;;;;;;;8.03;100.00;98564.03;6254419;28;19924;-81
2024/01/04 04:26:22;;;;;;;;;;;;;;;8.05;100.00;98583.75;6255159;28;19920;-81
2024/01/04 04:29:23;;;;;;;;;;;;;;;8.04;100.00;98586.47;6274052;28;19927;-81
2024/01/04 04:32:23;;;;;;;;;;;;;;;8.08;100.00;98582.72;6274766;28;19989;-81
2024/01/04 04:35:24;;;;;;;;;;;;;;;7.85;100.00;98585.22;6252274;28;19972;-80
2024/01/04 04:38:25;;;;;;;;;;;;;;;8.06;100.00;98587.19;6258474;28;20434;-80
2024/01/04 04:41:26;;;;;;;;;;;;;;;7.94;100.00;98577.69;6250850;28;19935;-81
2024/01/04 04:44:26;;;;;;;;;;;;;;;8.01;100.00;98589.28;6251601;28;20002;-81
2024/01/04 04:47:27;;;;;;;;;;;;;;;8.06;100.00;98593.19;6277437;28;19921;-81
2024/01/04 04:50:28;;;;;;;;;;;;;;;7.95;100.00;98580.19;6268598;28;20015;-80
2024/01/04 04:53:28;;;;;;;;;;;;;;;7.79;100.00;98559.72;6250561;28;19991;-80
2024/01/04 04:56:29;;;;;;;;;;;;;;;7.86;100.00;98566.13;6252206;28;20442;-80
2024/01/04 04:59:30;;;;;;;;;;;;;;;7.80;100.00;98563.13;6268312;28;20239;-81
2024/01/04 05:02:31;;;;;;;;;;;;;;;7.63;100.00;98567.78;6273043;28;20117;-81
2024/01/04 05:05:33;;;;;;;;;;;;;;;7.82;100.00;98574.22;6273557;28;20003;-81
2024/01/04 05:08:34;;;;;;;;;;;;;;;7.74;100.00;98561.81;6274102;28;20389;-79
2024/01/04 05:11:35;;;;;;;;;;;;;;;7.65;100.00;98559.88;6269618;28;19972;-81
2024/01/04 05:14:36;;;;;;;;;;;;;;;7.63;100.00;98548.78;6252601;28;19991;-81
2024/01/04 05:17:36;;;;;;;;;;;;;;;7.72;100.00;98547.28;6272478;28;19920;-80
2024/01/04 05:20:37;;;;;;;;;;;;;;;7.66;100.00;98551.16;6262977;28;20320;-80
2024/01/04 05:23:38;;;;;;;;;;;;;;;7.62;100.00;98552.34;6284187;28;19936;-81
2024/01/04 05:26:39;;;;;;;;;;;;;;;7.66;100.00;98544.22;6291628;28;19997;-81
2024/01/04 05:29:39;;;;;;;;;;;;;;;7.57;100.00;98557.00;6274021;28;20227;-81
2024/01/04 05:32:40;;;;;;;;;;;;;;;7.51;100.00;98560.88;6282703;28;20020;-81
2024/01/04 05:35:41;;;;;;;;;;;;;;;7.59;100.00;98575.91;6267084;28;19924;-81
2024/01/04 05:38:42;;;;;;;;;;;;;;;7.69;100.00;98576.06;6268057;28;19927;-80
2024/01/04 05:41:42;;;;;;;;;;;;;;;7.60;100.00;98569.78;6287952;28;19926;-81
2024/01/04 05:44:43;;;;;;;;;;;;;;;7.65;100.00;98559.88;6285073;28;19942;-81
2024/01/04 05:47:44;;;;;;;;;;;;;;;7.69;100.00;98573.47;6272313;28;19921;-80
2024/01/04 05:50:45;;;;;;;;;;;;;;;7.69;100.00;98570.88;6251606;28;19925;-81
2024/01/04 05:53:46;;;;;;;;;;;;;;;7.53;100.00;98568.56;6268998;28;19921;-81
2024/01/04 05:56:46;;;;;;;;;;;;;;;7.45;100.00;98571.69;6269329;28;19928;-81
2024/01/04 05:59:47;;;;;;;;;;;;;;;7.51;100.00;98579.03;6251428;28;19921;-81
2024/01/04 06:02:48;;;;;;;;;;;;;;;7.53;100.00;98582.34;6269106;28;19920;-80
2024/01/04 06:05:49;;;;;;;;;;;;;;;7.48;100.00;98558.50;6269043;28;19928;-82
2024/01/04 06:08:50;;;;;;;;;;;;;;;7.45;100.00;98559.56;6273269;28;19925;-82
2024/01/04 06:11:50;;;;;;;;;;;;;;;7.53;100.00;98568.56;6273785;28;19930;-78
2024/01/04 06:14:53;;;;;;;;;;;;;;;7.64;100.00;98566.03;6273571;28;19921;-78
2024/01/04 06:17:53;;;;;;;;;;;;;;;7.73;100.00;98564.53;6273706;28;20321;-79
2024/01/04 06:20:54;;;;;;;;;;;;;;;7.62;100.00;98563.53;6273602;28;20361;-79
2024/01/04 06:23:55;;;;;;;;;;;;;;;7.67;100.00;98558.00;6273905;28;20136;-78
2024/01/04 06:26:56;;;;;;;;;;;;;;;7.67;100.00;98566.63;6255352;28;19921;-79
2024/01/04 06:29:56;;;;;;;;;;;;;;;7.71;100.00;98571.59;6273642;28;19927;-79
2024/01/04 06:32:57;;;;;;;;;;;;;;;7.71;100.00;98576.78;6255457;28;19974;-79
2024/01/04 06:35:58;;;;;;;;;;;;;;;7.69;100.00;98565.69;6273322;28;19921;-78
2024/01/04 06:38:58;;;;;;;;;;;;;;;7.66;100.00;98580.56;6294829;28;19931;-79
2024/01/04 06:42:04;;;;;;;;;;;;;;;7.76;100.00;98572.94;6274536;28;19927;-79
2024/01/04 06:45:05;;;;;;;;;;;;;;;7.70;100.00;98568.19;6267464;28;19925;-78
2024/01/04 06:48:08;;;;;;;;;;;;;;;7.73;100.00;98564.53;6280124;28;19927;-77
2024/01/04 06:51:09;;;;;;;;;;;;;;;7.62;100.00;98558.34;6278805;28;19920;-82
2024/01/04 06:54:09;;;;;;;;;;;;;;;7.63;100.00;98564.34;6297552;28;19946;-81
2024/01/04 06:57:10;;;;;;;;;;;;;;;7.72;100.00;98563.72;6279195;28;19974;-81
2024/01/04 07:00:12;;;;;;;;;;;;;;;7.71;100.00;98559.44;6279698;28;20376;-81
2024/01/04 07:03:12;;;;;;;;;;;;;;;7.57;100.00;98550.03;6297483;28;19920;-78
2024/01/04 07:06:13;;;;;;;;;;;;;;;7.41;100.00;98539.97;6279529;28;20011;-77
2024/01/04 07:09:14;;;;;;;;;;;;;;;7.45;100.00;98533.63;6279683;28;20022;-77
2024/01/04 07:12:15;;;;;;;;;;;;;;;7.40;100.00;98535.69;6265331;28;19932;-78
2024/01/04 07:15:16;;;;;;;;;;;;;;;7.35;100.00;98537.81;6305325;28;19924;-80
2024/01/04 07:18:18;;;;;;;;;;;;;;;7.33;100.00;98526.72;6270226;28;19920;-81
2024/01/04 07:21:19;;;;;;;;;;;;;;;7.34;100.00;98530.13;6257184;28;19920;-78
2024/01/04 07:24:19;;;;;;;;;;;;;;;7.51;100.00;98534.09;6273510;28;19942;-79
2024/01/04 07:27:20;;;;;;;;;;;;;;;7.50;100.00;98535.88;6273172;28;19974;-82
2024/01/04 07:30:23;;;;;;;;;;;;;;;7.53;100.00;98543.41;6259536;28;19924;-82
2024/01/04 07:33:26;;;;;;;;;;;;;;;7.54;100.00;98552.88;6275877;28;19921;-82
2024/01/04 07:36:29;;;;;;;;;;;;;;;7.58;100.00;98550.91;6277197;28;19921;-82
2024/01/04 07:39:30;;;;;;;;;;;;;;;7.54;100.00;98555.47;6296637;28;20402;-82
2024/01/04 07:42:31;;;;;;;;;;;;;;;7.70;100.00;98554.34;6285433;28;19920;-79
2024/01/04 07:45:33;;;;;;;;;;;;;;;7.82;100.00;98549.13;6254107;28;19927;-79
2024/01/04 07:48:34;;;;;;;;;;;;;;;7.89;100.00;98544.28;6275298;28;20292;-79
2024/01/04 07:51:34;;;;;;;;;;;;;;;7.71;100.00;98537.84;6278730;28;19964;-80
2024/01/04 07:54:35;;;;;;;;;;;;;;;7.65;100.00;98542.53;6278516;28;19931;-80
2024/01/04 07:57:36;;;;;;;;;;;;;;;7.78;100.00;98549.44;6261907;28;19975;-82
2024/01/04 08:00:37;;;;;;;;;;;;;;;8.06;100.00;98541.25;6268739;28;19920;-83
2024/01/04 08:03:38;;;;;;;;;;;;;;;8.19;100.00;98541.16;6275200;28;20007;-82
2024/01/04 08:06:39;;;;;;;;;;;;;;;8.12;100.00;98537.38;6278053;28;19928;-82
2024/01/04 08:09:40;;;;;;;;;;;;;;;7.97;100.00;98535.91;6278311;28;19928;-81
2024/01/04 08:12:40;;;;;;;;;;;;;;;8.03;100.00;98536.28;6272248;28;19920;-82
2024/01/04 08:15:42;;;;;;;;;;;;;;;7.89;100.00;98539.09;6279603;28;19921;-79
2024/01/04 08:18:42;;;;;;;;;;;;;;;7.71;100.00;98535.25;6257274;28;19964;-80
2024/01/04 08:21:43;;;;;;;;;;;;;;;7.92;100.00;98531.06;6273453;28;19927;-81
2024/01/04 08:24:44;;;;;;;;;;;;;;;8.21;100.00;98530.66;6273127;28;19921;-82
2024/01/04 08:27:44;;;;;;;;;;;;;;;8.25;100.00;98532.06;6279941;28;19924;-79
2024/01/04 08:30:45;;;;;;;;;;;;;;;8.32;100.00;98522.88;6279678;28;19924;-79
2024/01/04 08:33:46;;;;;;;;;;;;;;;8.57;100.00;98527.06;6279787;28;19974;-79
2024/01/04 08:36:47;;;;;;;;;;;;;;;8.60;100.00;98528.59;6298147;28;19921;-82
2024/01/04 08:39:48;;;;;;;;;;;;;;;8.62;100.00;98517.13;6279829;28;19927;-82
2024/01/04 08:42:48;;;;;;;;;;;;;;;8.90;100.00;98521.97;6297417;28;20426;-79
2024/01/04 08:45:49;;;;;;;;;;;;;;;9.20;100.00;98522.13;6277070;28;19970;-80
2024/01/04 08:48:50;;;;;;;;;;;;;;;9.44;100.00;98523.72;6277133;28;19920;-80
2024/01/04 08:51:51;;;;;;;;;;;;;;;9.46;100.00;98520.03;6277185;28;20327;-81
2024/01/04 08:54:52;;;;;;;;;;;;;;;9.59;100.00;98524.25;6277118;28;19928;-83
2024/01/04 08:57:52;;;;;;;;;;;;;;;9.86;100.00;98516.78;6297756;28;19959;-85
2024/01/04 09:00:53;;;;;;;;;;;;;;;9.98;100.00;98522.75;6274978;28;20360;-81
2024/01/04 09:03:54;;;;;;;;;;;;;;;10.02;100.00;98520.72;6277097;28;20396;-81
2024/01/04 09:06:55;;;;;;;;;;;;;;;9.88;100.00;98511.44;6277561;28;20019;-81
2024/01/04 09:09:56;;;;;;;;;;;;;;;9.97;100.00;98504.66;6286401;28;19935;-78
2024/01/04 09:12:56;;;;;;;;;;;;;;;10.13;100.00;98501.56;6252156;28;20373;-78
2024/01/04 09:15:58;;;;;;;;;;;;;;;10.20;100.00;98508.75;6272032;28;19920;-82
2024/01/04 09:18:59;;;;;;;;;;;;;;;10.48;100.00;98506.47;6254843;28;19921;-88
2024/01/04 09:21:59;;;;;;;;;;;;;;;10.40;100.00;98503.69;6253598;28;20007;-79
2024/01/04 09:25:03;;;;;;;;;;;;;;;10.05;100.00;98508.28;6252998;28;19927;-82
2024/01/04 09:28:04;;;;;;;;;;;;;;;10.24;100.00;98514.56;6269749;28;19987;-82
2024/01/04 09:31:06;;;;;;;;;;;;;;;10.14;100.00;98514.50;6285238;28;20329;-80
2024/01/04 09:34:08;;;;;;;;;;;;;;;10.19;100.00;98514.94;6252361;28;19920;-81
2024/01/04 09:37:08;;;;;;;;;;;;;;;10.22;100.00;98506.84;6252489;28;19928;-81
2024/01/04 09:40:10;;;;;;;;;;;;;;;10.20;100.00;98510.56;6270539;28;19921;-82
2024/01/04 09:43:14;;;;;;;;;;;;;;;10.28;100.00;98518.56;6255626;28;19920;-82
2024/01/04 09:46:19;;;;;;;;;;;;;;;10.36;100.00;98512.72;6257274;28;20296;-81
2024/01/04 09:49:20;;;;;;;;;;;;;;;10.49;100.00;98524.56;6272636;28;20015;-83
2024/01/04 09:52:22;;;;;;;;;;;;;;;10.51;100.00;98506.19;6282114;28;19921;-83
2024/01/04 09:55:23;;;;;;;;;;;;;;;10.75;100.00;98507.66;6281596;28;19921;-84
2024/01/04 09:58:24;;;;;;;;;;;;;;;10.90;100.00;98498.50;6293156;28;19920;-84
2024/01/04 10:01:29;;;;;;;;;;;;;;;10.82;98.77;98509.59;6268355;28;19958;-83
2024/01/04 10:04:30;;;;;;;;;;;;;;;10.89;97.30;98496.84;6283313;28;19928;-84
2024/01/04 10:07:34;;;;;;;;;;;;;;;11.02;96.23;98496.63;6274376;28;20189;-83
2024/01/04 10:10:40;;;;;;;;;;;;;;;10.97;94.91;98494.38;6281675;28;19921;-83
2024/01/04 10:13:43;;;;;;;;;;;;;;;11.14;94.48;98489.47;6266932;28;19991;-83
2024/01/04 10:16:45;;;;;;;;;;;;;;;11.03;93.15;98500.88;6257466;28;19920;-82
2024/01/04 10:19:48;;;;;;;;;;;;;;;11.19;93.47;98500.34;6256429;28;20039;-82
2024/01/04 10:22:49;;;;;;;;;;;;;;;11.23;92.90;98489.50;6289616;28;19924;-82
2024/01/04 10:25:50;;;;;;;;;;;;;;;11.15;92.69;98489.34;6296335;28;19928;-83
2024/01/04 10:28:54;;;;;;;;;;;;;;;11.19;91.95;98492.53;6291057;28;19920;-83
2024/01/04 10:32:05;;;;;;;;;;;;;;;11.35;91.87;98497.22;6281736;28;19920;-79
2024/01/04 10:35:08;;;;;;;;;;;;;;;11.60;91.93;98488.81;6263488;28;19931;-82
2024/01/04 10:38:09;;;;;;;;;;;;;;;11.54;92.08;98489.38;6280292;28;19921;-86
2024/01/04 10:41:10;;;;;;;;;;;;;;;11.64;90.42;98484.16;6281599;28;19982;-82
2024/01/04 10:44:11;;;;;;;;;;;;;;;11.67;88.83;98482.09;6288942;28;19920;-82
2024/01/04 10:47:14;;;;;;;;;;;;;;;11.87;88.53;98479.44;6257860;28;19920;-82
2024/01/04 10:50:15;;;;;;;;;;;;;;;11.94;87.40;98480.56;6271608;28;19927;-82
2024/01/04 10:53:15;;;;;;;;;;;;;;;11.99;86.90;98480.97;6299103;28;19928;-84
2024/01/04 10:56:16;;;;;;;;;;;;;;;12.02;86.33;98485.91;6285973;28;19925;-83
2024/01/04 10:59:17;;;;;;;;;;;;;;;11.97;85.38;98474.25;6274080;28;19967;-83
2024/01/04 11:02:18;;;;;;;;;;;;;;;12.25;85.05;98469.88;6256925;28;19925;-82
2024/01/04 11:05:20;;;;;;;;;;;;;;;12.22;84.92;98472.78;6256993;28;19928;-83
2024/01/04 11:08:21;;;;;;;;;;;;;;;12.37;85.45;98463.50;6257051;28;19921;-83
2024/01/04 11:11:24;;;;;;;;;;;;;;;12.36;84.87;98468.91;6275099;28;19960;-82
2024/01/04 11:14:25;;;;;;;;;;;;;;;12.67;84.50;98464.22;6275093;28;19920;-83
2024/01/04 11:17:46;;;;;;;;;;;;;;;12.74;82.84;98461.81;6273768;28;20030;-83
2024/01/04 11:20:50;;;;;;;;;;;;;;;13.04;80.51;98458.88;6275658;28;20264;-83
2024/01/04 11:24:02;;;;;;;;;;;;;;;12.99;78.26;98455.06;6298907;28;19920;-82
2024/01/04 11:27:09;;;;;;;;;;;;;;;13.31;77.15;98467.69;6273488;28;19986;-82
2024/01/04 11:30:13;;;;;;;;;;;;;;;13.25;76.10;98463.84;6255807;28;20122;-84
2024/01/04 11:33:14;;;;;;;;;;;;;;;13.07;77.12;98473.47;6273694;28;19921;-81
2024/01/04 11:36:21;;;;;;;;;;;;;;;13.15;77.17;98465.69;6255837;28;20297;-82
2024/01/04 11:39:25;;;;;;;;;;;;;;;12.88;79.49;98472.63;6256213;28;19920;-82
2024/01/04 11:42:39;;;;;;;;;;;;;;;12.84;79.90;98475.69;6274730;28;20015;-84
2024/01/04 11:45:46;;;;;;;;;;;;;;;12.61;79.13;98475.25;6274895;28;19972;-83
2024/01/04 11:49:00;;;;;;;;;;;;;;;12.67;78.99;98475.50;6275190;28;19920;-83
2024/01/04 11:52:04;;;;;;;;;;;;;;;12.62;78.92;98488.19;6272912;28;20015;-85
2024/01/04 11:55:05;;;;;;;;;;;;;;;12.62;79.97;98492.59;6291800;28;19924;-85
2024/01/04 11:58:10;;;;;;;;;;;;;;;12.39;80.16;98484.28;6280999;28;19924;-84
2024/01/04 12:01:11;;;;;;;;;;;;;;;12.45;80.22;98481.09;6267426;28;19966;-85
2024/01/04 12:04:16;;;;;;;;;;;;;;;12.22;82.39;98496.31;6256042;28;19925;-85
2024/01/04 12:07:17;;;;;;;;;;;;;;;12.22;82.11;98501.56;6275776;28;19924;-84
2024/01/04 12:10:18;;;;;;;;;;;;;;;12.20;82.11;98501.69;6291348;28;19921;-85
2024/01/04 12:13:18;;;;;;;;;;;;;;;12.18;81.37;98501.00;6270979;28;20017;-82
2024/01/04 12:16:19;;;;;;;;;;;;;;;12.25;81.87;98499.50;6291369;28;20011;-85
2024/01/04 12:19:22;;;;;;;;;;;;;;;12.16;81.88;98499.50;6275546;28;19924;-84
2024/01/04 12:22:23;;;;;;;;;;;;;;;12.19;83.03;98504.44;6292837;28;19920;-84
2024/01/04 12:25:24;;;;;;;;;;;;;;;12.12;83.07;98498.13;6299125;28;19921;-84
2024/01/04 12:28:27;;;;;;;;;;;;;;;12.13;82.34;98507.63;6296623;28;19978;-84
2024/01/04 12:31:29;;;;;;;;;;;;;;;12.42;80.91;98511.00;6259209;28;20046;-84
2024/01/04 12:34:30;;;;;;;;;;;;;;;12.50;79.52;98513.72;6297808;28;19982;-85
2024/01/04 12:37:31;;;;;;;;;;;;;;;12.65;77.51;98510.63;6280380;28;19920;-85
2024/01/04 12:40:39;;;;;;;;;;;;;;;12.92;76.19;98506.38;6281163;28;19920;-84
2024/01/04 12:43:41;;;;;;;;;;;;;;;13.22;75.91;98497.34;6280265;28;19920;-85
2024/01/04 12:46:46;;;;;;;;;;;;;;;13.15;75.01;98497.13;6297564;28;19920;-86
2024/01/04 12:49:57;;;;;;;;;;;;;;;12.68;73.18;98505.94;6279896;28;19920;-84
2024/01/04 12:53:01;;;;;;;;;;;;;;;12.60;74.42;98511.06;6298105;28;19920;-84
2024/01/04 12:56:02;;;;;;;;;;;;;;;12.53;75.91;98512.59;6297953;28;20296;-84
2024/01/04 12:59:04;;;;;;;;;;;;;;;12.45;75.67;98513.31;6298284;28;19942;-83
2024/01/04 13:02:07;;;;;;;;;;;;;;;12.18;75.95;98513.25;6279789;28;20392;-85
2024/01/04 13:05:11;;;;;;;;;;;;;;;12.20;75.97;98520.00;6279948;28;19927;-84
2024/01/04 13:08:12;;;;;;;;;;;;;;;12.13;75.68;98525.91;6280362;28;19921;-81
2024/01/04 13:11:15;;;;;;;;;;;;;;;11.91;76.12;98527.88;6279467;28;20315;-82
2024/01/04 13:14:16;;;;;;;;;;;;;;;11.79;75.51;98526.34;6296822;28;20335;-82
2024/01/04 13:17:17;;;;;;;;;;;;;;;11.85;75.53;98525.81;6279599;28;19991;-83
2024/01/04 13:20:18;;;;;;;;;;;;;;;11.97;75.96;98529.94;6279126;28;19921;-83
2024/01/04 13:23:18;;;;;;;;;;;;;;;11.99;76.95;98527.19;6297326;28;19982;-84
2024/01/04 13:26:19;;;;;;;;;;;;;;;12.00;78.38;98529.66;6297791;28;20261;-83
2024/01/04 13:29:20;;;;;;;;;;;;;;;11.92;77.78;98526.91;6279960;28;19924;-83
2024/01/04 13:32:21;;;;;;;;;;;;;;;11.98;77.66;98536.81;6279449;28;19920;-84
2024/01/04 13:35:22;;;;;;;;;;;;;;;11.77;77.66;98536.94;6297642;28;20019;-83
2024/01/04 13:38:23;;;;;;;;;;;;;;;11.85;77.62;98544.91;6280014;28;19921;-82
2024/01/04 13:41:26;;;;;;;;;;;;;;;11.72;78.17;98543.56;6279819;28;19921;-84
2024/01/04 13:44:27;;;;;;;;;;;;;;;11.84;77.91;98543.28;6290852;28;19989;-84
2024/01/04 13:47:31;;;;;;;;;;;;;;;11.52;75.97;98551.38;6291383;28;20353;-84
2024/01/04 13:50:32;;;;;;;;;;;;;;;11.62;75.94;98562.66;6254033;28;19921;-83
2024/01/04 13:53:32;;;;;;;;;;;;;;;11.65;75.64;98553.72;6254470;28;19920;-82
2024/01/04 13:56:34;;;;;;;;;;;;;;;11.46;76.59;98559.75;6254164;28;19956;-82
2024/01/04 13:59:35;;;;;;;;;;;;;;;11.42;76.87;98576.66;6254114;28;19927;-83
2024/01/04 14:02:35;;;;;;;;;;;;;;;11.22;76.95;98571.41;6265576;28;20018;-82
2024/01/04 14:05:38;;;;;;;;;;;;;;;11.25;77.21;98573.72;6278527;28;19931;-83
2024/01/04 14:08:42;;;;;;;;;;;;;;;11.37;77.10;98577.06;6271710;28;19950;-83
2024/01/04 14:11:44;;;;;;;;;;;;;;;11.38;78.03;98575.28;6271768;28;19921;-80
2024/01/04 14:14:44;;;;;;;;;;;;;;;11.20;77.81;98578.53;6254280;28;19920;-81
2024/01/04 14:17:45;;;;;;;;;;;;;;;11.14;77.94;98579.06;6282480;28;19921;-81
2024/01/04 14:20:46;;;;;;;;;;;;;;;11.19;77.97;98584.72;6297632;28;20014;-83
2024/01/04 14:23:46;;;;;;;;;;;;;;;11.16;78.06;98594.59;6297765;28;19947;-81
2024/01/04 14:26:48;;;;;;;;;;;;;;;11.22;78.55;98597.50;6297297;28;20257;-82
2024/01/04 14:29:52;;;;;;;;;;;;;;;11.16;78.38;98595.44;6283300;28;19928;-81
2024/01/04 14:32:55;;;;;;;;;;;;;;;11.02;77.91;98604.44;6302314;28;19927;-83
2024/01/04 14:35:57;;;;;;;;;;;;;;;11.02;79.06;98611.47;6284227;28;20392;-83
2024/01/04 14:38:59;;;;;;;;;;;;;;;11.01;79.03;98601.97;6266048;28;19920;-82
2024/01/04 14:42:00;;;;;;;;;;;;;;;10.76;78.89;98600.63;6292268;28;20372;-81
2024/01/04 14:45:00;;;;;;;;;;;;;;;10.77;80.22;98612.69;6259474;28;19967;-83
2024/01/04 14:48:03;;;;;;;;;;;;;;;10.53;81.53;98605.19;6276962;28;19921;-82
2024/01/04 14:51:03;;;;;;;;;;;;;;;10.54;82.87;98614.63;6275120;28;19921;-82
2024/01/04 14:54:06;;;;;;;;;;;;;;;10.44;82.78;98612.81;6257829;28;20361;-82
2024/01/04 14:57:10;;;;;;;;;;;;;;;10.36;83.27;98612.63;6275689;28;19925;-82
2024/01/04 15:00:14;;;;;;;;;;;;;;;10.28;84.22;98628.88;6290446;28;19921;-82
2024/01/04 15:03:15;;;;;;;;;;;;;;;10.21;84.19;98625.13;6274979;28;19920;-83
2024/01/04 15:06:17;;;;;;;;;;;;;;;10.20;85.00;98630.44;6257572;28;20395;-81
2024/01/04 15:09:18;;;;;;;;;;;;;;;10.15;86.01;98636.06;6257995;28;19921;-83
2024/01/04 15:12:19;;;;;;;;;;;;;;;10.05;86.59;98630.75;6257831;28;20003;-82
2024/01/04 15:15:20;;;;;;;;;;;;;;;9.86;86.62;98636.63;6255930;28;19939;-81
2024/01/04 15:18:20;;;;;;;;;;;;;;;9.89;86.64;98640.75;6264267;28;20416;-82
2024/01/04 15:21:21;;;;;;;;;;;;;;;9.95;86.92;98631.63;6281248;28;19920;-84
2024/01/04 15:24:22;;;;;;;;;;;;;;;9.94;86.06;98633.38;6263358;28;19920;-83
2024/01/04 15:27:23;;;;;;;;;;;;;;;9.85;86.56;98647.16;6257762;28;19987;-84
2024/01/04 15:30:24;;;;;;;;;;;;;;;9.86;86.35;98644.44;6296794;28;20296;-85
2024/01/04 15:33:24;;;;;;;;;;;;;;;9.87;86.87;98651.31;6304809;28;19926;-85
2024/01/04 15:36:25;;;;;;;;;;;;;;;9.88;87.09;98652.13;6304641;28;20409;-85
2024/01/04 15:39:26;;;;;;;;;;;;;;;9.92;86.73;98658.75;6303280;28;20032;-84
2024/01/04 15:42:27;;;;;;;;;;;;;;;9.90;86.37;98665.84;6303643;28;19920;-81